createdAt,value
2022-08-09T00:01:26.614Z,80.10
2022-08-09T00:06:18.879Z,79.95
2022-08-09T00:09:31.250Z,77.43
2022-08-09T00:13:02.301Z,75.03
2022-08-09T00:16:17.683Z,75.25
2022-08-09T00:20:08.065Z,76.52
2022-08-09T00:23:54.571Z,78.14
2022-08-09T00:27:43.219Z,77.85
2022-08-09T00:31:58.242Z,79.35
2022-08-09T00:35:15.628Z,79.14
2022-08-09T00:38:57.280Z,77.55
2022-08-09T00:44:13.883Z,77.64
2022-08-09T00:46:44.058Z,80.22
2022-08-09T00:50:19.720Z,80.24
2022-08-09T00:54:08.558Z,78.77
2022-08-09T00:57:59.330Z,80.76
2022-08-09T01:00:59.284Z,80.79
2022-08-09T01:04:35.817Z,78.53
2022-08-09T01:08:30.510Z,77.40
2022-08-09T01:12:23.045Z,76.49
2022-08-09T01:16:14.864Z,74.65
2022-08-09T01:19:39.938Z,76.41
2022-08-09T01:24:02.044Z,75.73
2022-08-09T01:28:01.342Z,73.62
2022-08-09T01:31:23.347Z,74.28
2022-08-09T01:35:29.205Z,74.42
2022-08-09T01:39:17.681Z,74.85
2022-08-09T01:42:58.108Z,80.40
2022-08-09T01:46:47.920Z,79.79
2022-08-09T01:50:18.071Z,78.41
2022-08-09T01:54:18.946Z,80.01
2022-08-09T01:58:10.640Z,82.87
2022-08-09T02:01:59.278Z,89.02
2022-08-09T02:05:37.752Z,90.23
2022-08-09T02:09:14.518Z,97.97
2022-08-09T02:12:56.307Z,96.58
2022-08-09T02:16:06.664Z,91.96
2022-08-09T02:19:38.638Z,88.11
2022-08-09T02:23:17.851Z,93.03
2022-08-09T02:26:58.897Z,90.36
2022-08-09T02:30:47.874Z,91.00
2022-08-09T02:34:41.705Z,90.21
2022-08-09T02:38:28.619Z,91.68
2022-08-09T02:42:24.817Z,90.11
2022-08-09T02:45:56.520Z,89.50
2022-08-09T02:49:45.303Z,92.00
2022-08-09T02:53:56.678Z,89.81
2022-08-09T02:57:25.246Z,89.78
2022-08-09T03:00:58.467Z,91.17
2022-08-09T03:04:43.164Z,90.27
2022-08-09T03:08:32.095Z,88.38
2022-08-09T03:12:20.095Z,89.06
2022-08-09T03:16:10.108Z,90.31
2022-08-09T03:19:57.913Z,91.15
2022-08-09T03:23:38.158Z,92.25
2022-08-09T03:27:17.238Z,91.31
2022-08-09T03:31:21.121Z,90.33
2022-08-09T03:35:24.903Z,91.77
2022-08-09T03:39:15.125Z,91.78
2022-08-09T03:42:48.594Z,92.42
2022-08-09T03:46:37.510Z,89.58
2022-08-09T03:50:11.685Z,86.56
2022-08-09T03:53:51.179Z,87.19
2022-08-09T03:57:32.445Z,88.86
2022-08-09T04:01:33.664Z,91.06
2022-08-09T04:04:52.726Z,91.00
2022-08-09T04:08:40.732Z,90.19
2022-08-09T04:11:58.470Z,90.44
2022-08-09T04:16:18.208Z,91.85
2022-08-09T04:19:56.170Z,90.51
2022-08-09T04:23:29.102Z,90.68
2022-08-09T04:27:21.952Z,91.00
2022-08-09T04:31:13.073Z,90.22
2022-08-09T04:34:47.787Z,87.38
2022-08-09T04:38:45.051Z,86.69
2022-08-09T04:42:22.745Z,87.73
2022-08-09T04:46:36.380Z,87.85
2022-08-09T04:49:55.782Z,89.71
2022-08-09T04:53:45.156Z,92.32
2022-08-09T04:57:14.322Z,91.26
2022-08-09T05:00:56.175Z,90.41
2022-08-09T05:04:31.423Z,89.28
2022-08-09T05:08:14.025Z,87.33
2022-08-09T05:12:04.087Z,87.54
2022-08-09T05:15:39.385Z,87.38
2022-08-09T05:19:26.110Z,85.48
2022-08-09T05:23:54.845Z,85.20
2022-08-09T05:26:59.372Z,82.43
2022-08-09T05:30:36.522Z,79.78
2022-08-09T05:34:31.357Z,80.54
2022-08-09T05:37:59.843Z,79.53
2022-08-09T05:41:48.764Z,78.25
2022-08-09T05:45:53.026Z,77.98
2022-08-09T05:50:30.447Z,77.99
2022-08-09T05:53:57.665Z,79.36
2022-08-09T05:57:56.400Z,76.41
2022-08-09T06:01:25.681Z,75.86
2022-08-09T06:04:44.408Z,75.16
2022-08-09T06:08:19.322Z,72.52
2022-08-09T06:12:14.412Z,72.39
2022-08-09T06:16:04.852Z,68.29
2022-08-09T06:19:54.499Z,70.32
2022-08-09T06:23:55.655Z,69.46
2022-08-09T06:27:51.492Z,66.73
2022-08-09T06:32:08.386Z,64.73
2022-08-09T06:35:35.862Z,65.01
2022-08-09T06:39:57.808Z,62.46
2022-08-09T06:43:34.446Z,62.50
2022-08-09T06:47:24.024Z,62.02
2022-08-09T06:51:10.135Z,61.25
2022-08-09T06:54:59.366Z,61.16
2022-08-09T07:00:49.734Z,61.39
2022-08-09T07:02:51.791Z,61.29
2022-08-09T07:06:40.611Z,60.70
2022-08-09T07:10:32.289Z,60.30
2022-08-09T07:14:05.240Z,59.43
2022-08-09T07:18:02.145Z,60.77
2022-08-09T07:21:32.183Z,58.89
2022-08-09T07:25:23.291Z,60.54
2022-08-09T07:29:01.275Z,59.52
2022-08-09T07:32:58.640Z,58.67
2022-08-09T07:36:42.692Z,59.00
2022-08-09T07:41:00.517Z,58.42
2022-08-09T07:44:52.512Z,57.97
2022-08-09T07:48:43.117Z,55.31
2022-08-09T07:52:35.811Z,54.95
2022-08-09T07:56:03.517Z,58.24
2022-08-09T07:59:45.695Z,57.41
2022-08-09T08:03:13.772Z,56.88
2022-08-09T08:06:56.156Z,56.43
2022-08-09T08:10:38.598Z,54.95
2022-08-09T08:14:37.698Z,52.86
2022-08-09T08:18:27.018Z,52.28
2022-08-09T08:21:50.919Z,50.04
2022-08-09T08:25:24.313Z,51.14
2022-08-09T08:29:39.555Z,50.82
2022-08-09T08:33:40.647Z,48.83
2022-08-09T08:37:59.608Z,48.12
2022-08-09T08:41:52.472Z,48.89
2022-08-09T08:45:37.154Z,48.99
2022-08-09T08:49:38.905Z,48.80
2022-08-09T08:53:37.379Z,48.13
2022-08-09T08:57:26.752Z,47.80
2022-08-09T09:01:25.044Z,47.47
2022-08-09T09:05:59.117Z,46.50
2022-08-09T09:09:41.108Z,45.45
2022-08-09T09:13:34.823Z,45.98
2022-08-09T09:17:48.900Z,45.03
2022-08-09T09:21:43.419Z,42.29
2022-08-09T09:26:03.807Z,41.61
2022-08-09T09:30:10.608Z,40.94
2022-08-09T09:34:14.699Z,41.15
2022-08-09T09:38:03.160Z,41.99
2022-08-09T09:41:50.873Z,42.90
2022-08-09T09:45:56.982Z,39.15
2022-08-09T09:50:15.258Z,39.92
2022-08-09T09:54:14.251Z,40.31
2022-08-09T09:58:24.542Z,41.04
2022-08-09T10:02:20.356Z,41.51
2022-08-09T10:06:10.270Z,40.55
2022-08-09T10:10:03.289Z,40.91
2022-08-09T10:13:53.049Z,40.49
2022-08-09T10:17:39.429Z,39.53
2022-08-09T10:21:49.708Z,39.52
2022-08-09T10:26:04.183Z,39.22
2022-08-09T10:30:49.262Z,37.18
2022-08-09T10:34:11.492Z,36.42
2022-08-09T10:38:02.438Z,36.01
2022-08-09T10:41:52.218Z,36.59
2022-08-09T10:45:49.295Z,35.99
2022-08-09T10:50:00.331Z,35.44
2022-08-09T10:53:54.520Z,33.43
2022-08-09T10:57:51.818Z,33.73
2022-08-09T11:03:11.613Z,32.21
2022-08-09T11:06:00.127Z,31.62
2022-08-09T11:09:50.539Z,30.79
2022-08-09T11:13:54.805Z,31.95
2022-08-09T11:17:41.746Z,32.70
2022-08-09T11:21:41.412Z,32.43
2022-08-09T11:25:47.893Z,32.88
2022-08-09T11:30:05.681Z,32.62
2022-08-09T11:33:30.547Z,32.70
2022-08-09T11:37:19.153Z,33.01
2022-08-09T11:41:09.139Z,33.01
2022-08-09T11:44:57.144Z,33.62
2022-08-09T11:48:52.655Z,34.50
2022-08-09T11:53:00.983Z,34.58
2022-08-09T11:56:55.403Z,32.43
2022-08-09T12:00:33.599Z,33.37
2022-08-09T12:04:32.473Z,33.72
2022-08-09T12:08:30.583Z,33.91
2022-08-09T12:12:29.230Z,33.62
2022-08-09T12:16:30.652Z,33.16
2022-08-09T12:20:10.688Z,33.54
2022-08-09T12:24:09.530Z,34.92
2022-08-09T12:29:13.168Z,35.97
2022-08-09T12:32:02.118Z,36.82
2022-08-09T12:35:40.034Z,37.05
2022-08-09T12:39:29.930Z,37.20
2022-08-09T12:44:06.554Z,37.01
2022-08-09T12:47:05.401Z,36.57
2022-08-09T12:50:37.570Z,36.61
2022-08-09T12:54:25.156Z,36.02
2022-08-09T12:58:24.446Z,36.32
2022-08-09T13:02:23.681Z,37.03
2022-08-09T13:06:25.291Z,36.07
2022-08-09T13:10:26.935Z,35.91
2022-08-09T13:14:42.486Z,34.74
2022-08-09T13:18:35.867Z,35.61
2022-08-09T13:22:38.180Z,35.74
2022-08-09T13:26:40.915Z,35.62
2022-08-09T13:30:51.225Z,36.00
2022-08-09T13:34:42.030Z,35.27
2022-08-09T13:38:46.073Z,34.58
2022-08-09T13:42:44.073Z,32.93
2022-08-09T13:47:16.779Z,32.12
2022-08-09T13:50:31.293Z,31.34
2022-08-09T13:54:15.237Z,31.81
2022-08-09T13:58:02.916Z,30.31
2022-08-09T14:02:02.256Z,29.46
2022-08-09T14:06:00.247Z,30.31
2022-08-09T14:09:53.137Z,30.59
2022-08-09T14:14:15.718Z,30.29
2022-08-09T14:18:18.799Z,31.28
2022-08-09T14:21:47.641Z,30.45
2022-08-09T14:25:43.034Z,30.78
2022-08-09T14:30:34.036Z,32.01
2022-08-09T14:33:43.662Z,31.94
2022-08-09T14:38:02.590Z,33.03
2022-08-09T14:41:40.415Z,34.56
2022-08-09T14:44:59.561Z,33.88
2022-08-09T14:48:29.727Z,34.01
2022-08-09T14:52:09.947Z,35.04
2022-08-09T14:55:59.635Z,35.51
2022-08-09T14:59:48.689Z,36.61
2022-08-09T15:03:38.929Z,36.86
2022-08-09T15:07:12.084Z,37.07
2022-08-09T15:11:07.081Z,37.36
2022-08-09T15:14:57.395Z,37.42
2022-08-09T15:18:49.912Z,37.63
2022-08-09T15:22:26.075Z,37.62
2022-08-09T15:26:18.843Z,37.54
2022-08-09T15:30:58.149Z,37.23
2022-08-09T15:34:18.007Z,37.76
2022-08-09T15:37:56.882Z,38.78
2022-08-09T15:41:55.041Z,39.07
2022-08-09T15:46:07.703Z,37.40
2022-08-09T15:50:03.449Z,35.53
2022-08-09T15:54:05.973Z,35.07
2022-08-09T15:57:57.471Z,35.08
2022-08-09T16:01:53.327Z,35.23
2022-08-09T16:05:53.395Z,33.74
2022-08-09T16:09:51.390Z,33.16
2022-08-09T16:14:03.100Z,32.26
2022-08-09T16:17:56.581Z,31.98
2022-08-09T16:21:51.843Z,34.94
2022-08-09T16:25:39.780Z,36.06
2022-08-09T16:29:12.691Z,36.47
2022-08-09T16:32:53.189Z,37.00
2022-08-09T16:36:27.769Z,37.54
2022-08-09T16:39:10.325Z,37.61
2022-08-09T16:42:45.006Z,37.74
2022-08-09T16:46:34.924Z,38.01
2022-08-09T16:50:33.479Z,39.74
2022-08-09T16:54:26.046Z,42.62
2022-08-09T16:58:10.103Z,43.41
2022-08-09T17:01:51.112Z,43.58
2022-08-09T17:06:06.706Z,43.90
2022-08-09T17:09:53.391Z,44.45
2022-08-09T17:14:01.830Z,45.58
2022-08-09T17:17:27.782Z,46.11
2022-08-09T17:20:52.426Z,47.46
2022-08-09T17:24:47.847Z,48.10
2022-08-09T17:28:16.475Z,49.74
2022-08-09T17:32:07.618Z,50.26
2022-08-09T17:36:05.715Z,50.45
2022-08-09T17:39:28.049Z,50.61
2022-08-09T17:43:34.889Z,50.67
2022-08-09T17:47:26.469Z,51.07
2022-08-09T17:51:20.116Z,51.53
2022-08-09T17:54:59.887Z,51.81
2022-08-09T17:58:51.081Z,52.49
2022-08-09T18:02:41.302Z,52.65
2022-08-09T18:06:14.809Z,52.98
2022-08-09T18:10:18.120Z,53.38
2022-08-09T18:14:12.543Z,53.58
2022-08-09T18:18:08.128Z,54.12
2022-08-09T18:21:48.445Z,54.12
2022-08-09T18:25:15.461Z,54.25
2022-08-09T18:30:42.198Z,54.55
2022-08-09T18:32:47.086Z,55.26
2022-08-09T18:36:08.013Z,55.41
2022-08-09T18:39:45.375Z,55.76
2022-08-09T18:43:38.744Z,56.54
2022-08-09T18:47:27.599Z,56.57
2022-08-09T18:51:03.069Z,57.26
2022-08-09T18:54:33.678Z,58.06
2022-08-09T18:58:32.263Z,59.03
2022-08-09T19:02:15.483Z,59.78
2022-08-09T19:06:04.098Z,60.47
2022-08-09T19:10:16.708Z,61.39
2022-08-09T19:14:03.288Z,61.62
2022-08-09T19:17:58.657Z,62.03
2022-08-09T19:22:04.876Z,62.63
2022-08-09T19:26:02.202Z,63.10
2022-08-09T19:30:21.309Z,63.60
2022-08-09T19:34:02.479Z,63.75
2022-08-09T19:37:17.262Z,64.40
2022-08-09T19:41:06.536Z,65.05
2022-08-09T19:44:51.294Z,66.12
2022-08-09T19:49:02.519Z,66.71
2022-08-09T19:52:20.512Z,66.96
2022-08-09T19:56:06.689Z,67.67
2022-08-09T19:59:59.175Z,68.07
2022-08-09T20:04:16.614Z,68.34
2022-08-09T20:08:06.089Z,70.51
2022-08-09T20:11:51.864Z,70.44
2022-08-09T20:16:33.521Z,70.86
2022-08-09T20:19:54.698Z,71.56
2022-08-09T20:23:21.154Z,69.26
2022-08-09T20:27:05.430Z,71.56
2022-08-09T20:30:58.281Z,73.14
2022-08-09T20:34:31.707Z,76.00
2022-08-09T20:38:22.383Z,76.96
2022-08-09T20:41:58.265Z,79.40
2022-08-09T20:46:01.865Z,80.14
2022-08-09T20:49:29.953Z,81.64
2022-08-09T20:53:35.236Z,83.99
2022-08-09T20:57:32.388Z,83.61
2022-08-09T21:01:13.623Z,83.61
2022-08-09T21:05:51.901Z,83.74
2022-08-09T21:08:54.874Z,83.29
2022-08-09T21:15:56.141Z,82.04
2022-08-09T21:20:17.158Z,83.48
2022-08-09T21:23:47.500Z,87.20
2022-08-09T21:27:52.639Z,90.81
2022-08-09T21:35:50.831Z,91.12
2022-08-09T21:38:57.958Z,91.09
2022-08-09T21:42:47.802Z,92.10
2022-08-09T21:46:33.909Z,93.70
2022-08-09T21:50:25.328Z,94.92
2022-08-09T21:54:16.639Z,96.80
2022-08-09T21:58:01.880Z,97.36
2022-08-09T22:01:58.588Z,95.06
2022-08-09T22:05:51.363Z,98.07
2022-08-09T22:09:30.228Z,100.00
2022-08-09T22:13:15.070Z,100.00
2022-08-09T22:16:40.397Z,100.00
2022-08-09T22:20:01.915Z,100.00
2022-08-09T22:23:26.564Z,100.00
2022-08-09T22:26:47.874Z,100.00
2022-08-09T22:30:31.298Z,100.00
2022-08-09T22:34:15.645Z,100.00
2022-08-09T22:38:06.708Z,100.00
2022-08-09T22:41:34.384Z,100.00
2022-08-09T22:48:11.600Z,100.00
2022-08-09T22:48:43.403Z,100.00
2022-08-09T22:52:30.898Z,100.00
2022-08-09T22:56:30.807Z,100.00
2022-08-09T23:00:00.843Z,100.00
2022-08-09T23:04:03.993Z,100.00
2022-08-09T23:07:16.376Z,100.00
2022-08-09T23:10:44.133Z,100.00
2022-08-09T23:14:41.775Z,100.00
2022-08-09T23:18:31.277Z,100.00
2022-08-09T23:21:39.629Z,100.00
2022-08-09T23:24:42.654Z,100.00
2022-08-09T23:28:15.611Z,100.00
2022-08-09T23:31:59.372Z,100.00
2022-08-09T23:35:25.145Z,100.00
2022-08-09T23:38:26.592Z,100.00
2022-08-09T23:41:28.295Z,100.00
2022-08-09T23:45:10.213Z,100.00
2022-08-09T23:49:11.404Z,100.00
2022-08-09T23:52:40.580Z,100.00
2022-08-09T23:55:49.704Z,100.00
2022-08-09T23:59:02.201Z,100.00
